createdAt,value
2022-12-24T00:01:23.045Z,9.10
2022-12-24T00:04:20.506Z,9.30
2022-12-24T00:07:18.589Z,9.48
2022-12-24T00:10:16.780Z,9.60
2022-12-24T00:13:14.335Z,9.76
2022-12-24T00:16:12.198Z,9.90
2022-12-24T00:19:09.653Z,10.00
2022-12-24T00:22:07.725Z,10.10
2022-12-24T00:25:05.342Z,10.20
2022-12-24T00:28:02.959Z,10.20
2022-12-24T00:31:00.470Z,10.20
2022-12-24T00:33:58.180Z,10.20
2022-12-24T00:36:55.746Z,10.20
2022-12-24T00:39:53.816Z,10.20
2022-12-24T00:42:51.241Z,10.30
2022-12-24T00:45:49.185Z,10.30
2022-12-24T00:48:46.711Z,10.34
2022-12-24T00:51:44.663Z,10.40
2022-12-24T00:54:42.078Z,10.50
2022-12-24T00:57:40.016Z,10.52
2022-12-24T01:00:37.438Z,10.60
2022-12-24T01:03:38.248Z,10.62
2022-12-24T01:06:35.853Z,10.70
2022-12-24T01:09:33.732Z,10.70
2022-12-24T01:12:31.142Z,10.80
2022-12-24T01:15:28.960Z,10.80
2022-12-24T01:18:26.407Z,10.80
2022-12-24T01:21:24.298Z,10.84
2022-12-24T01:27:39.395Z,10.80
2022-12-24T01:30:37.791Z,10.80
2022-12-24T01:33:35.256Z,10.90
2022-12-24T01:36:33.047Z,10.90
2022-12-24T01:39:30.467Z,10.90
2022-12-24T01:42:46.097Z,10.90
2022-12-24T01:45:43.572Z,11.00
2022-12-24T01:48:41.283Z,11.00
2022-12-24T01:51:38.956Z,11.02
2022-12-24T01:54:36.406Z,11.10
2022-12-24T01:57:34.093Z,11.10
2022-12-24T02:00:31.499Z,11.12
2022-12-24T02:03:29.211Z,11.20
2022-12-24T02:06:26.832Z,11.20
2022-12-24T02:09:24.547Z,11.20
2022-12-24T02:12:22.138Z,11.30
2022-12-24T02:15:19.559Z,11.30
2022-12-24T02:18:17.246Z,11.30
2022-12-24T02:21:14.684Z,11.40
2022-12-24T02:24:12.475Z,11.42
2022-12-24T02:27:10.462Z,11.50
2022-12-24T02:30:07.905Z,11.50
2022-12-24T02:33:05.567Z,11.50
2022-12-24T02:36:03.429Z,11.46
2022-12-24T02:39:01.211Z,11.40
2022-12-24T02:42:08.053Z,11.40
2022-12-24T02:45:05.711Z,11.40
2022-12-24T02:48:03.411Z,11.40
2022-12-24T02:51:00.828Z,11.42
2022-12-24T02:53:59.854Z,11.44
2022-12-24T02:56:57.288Z,11.50
2022-12-24T02:59:54.879Z,11.50
2022-12-24T03:02:52.634Z,11.50
2022-12-24T03:05:50.923Z,11.40
2022-12-24T03:08:48.709Z,11.40
2022-12-24T03:11:46.127Z,11.40
2022-12-24T03:14:43.832Z,11.30
2022-12-24T03:17:41.278Z,11.30
2022-12-24T03:20:38.898Z,11.30
2022-12-24T03:23:36.575Z,11.30
2022-12-24T03:26:34.042Z,11.30
2022-12-24T03:29:31.746Z,11.30
2022-12-24T03:32:29.159Z,11.30
2022-12-24T03:35:26.958Z,11.30
2022-12-24T03:38:24.765Z,11.30
2022-12-24T03:41:22.213Z,11.32
2022-12-24T03:44:19.957Z,11.40
2022-12-24T03:47:17.453Z,11.40
2022-12-24T03:50:15.503Z,11.40
2022-12-24T03:53:12.960Z,11.40
2022-12-24T03:56:10.578Z,11.46
2022-12-24T03:59:08.019Z,11.42
2022-12-24T04:02:05.848Z,11.46
2022-12-24T04:05:03.452Z,11.48
2022-12-24T04:08:01.115Z,11.48
2022-12-24T04:11:00.420Z,11.50
2022-12-24T04:13:59.890Z,11.50
2022-12-24T04:16:57.748Z,11.50
2022-12-24T04:19:55.242Z,11.50
2022-12-24T04:22:52.955Z,11.50
2022-12-24T04:25:50.365Z,11.50
2022-12-24T04:28:48.056Z,11.46
2022-12-24T04:31:45.930Z,11.40
2022-12-24T04:34:43.387Z,11.40
2022-12-24T04:37:41.078Z,11.40
2022-12-24T04:40:38.519Z,11.40
2022-12-24T04:43:36.241Z,11.40
2022-12-24T04:46:34.010Z,11.30
2022-12-24T04:49:31.457Z,11.30
2022-12-24T04:52:29.192Z,11.30
2022-12-24T04:55:26.677Z,11.20
2022-12-24T04:58:24.454Z,11.20
2022-12-24T05:01:21.992Z,11.20
2022-12-24T05:04:19.785Z,11.14
2022-12-24T05:07:17.223Z,11.10
2022-12-24T05:10:15.014Z,11.10
2022-12-24T05:13:12.455Z,11.10
2022-12-24T05:16:10.211Z,11.10
2022-12-24T05:19:08.002Z,11.10
2022-12-24T05:22:23.045Z,11.00
2022-12-24T05:25:38.456Z,11.00
2022-12-24T05:28:35.870Z,11.00
2022-12-24T05:31:33.720Z,11.00
2022-12-24T05:34:31.458Z,11.00
2022-12-24T05:37:28.887Z,11.00
2022-12-24T05:40:26.672Z,11.00
2022-12-24T05:43:24.104Z,11.00
2022-12-24T05:46:21.909Z,10.94
2022-12-24T05:49:19.463Z,10.90
2022-12-24T05:52:17.168Z,10.90
2022-12-24T05:55:14.611Z,10.90
2022-12-24T05:58:12.362Z,10.90
2022-12-24T06:01:09.842Z,10.90
2022-12-24T06:04:07.645Z,10.90
2022-12-24T06:07:05.372Z,10.90
2022-12-24T06:10:02.815Z,10.94
2022-12-24T06:13:00.607Z,10.90
2022-12-24T06:15:58.081Z,10.90
2022-12-24T06:18:55.817Z,10.90
2022-12-24T06:21:53.588Z,10.90
2022-12-24T06:24:51.009Z,10.90
2022-12-24T06:27:48.604Z,10.90
2022-12-24T06:30:46.050Z,10.90
2022-12-24T06:33:43.828Z,10.90
2022-12-24T06:36:41.272Z,10.90
2022-12-24T06:39:38.965Z,10.90
2022-12-24T06:42:36.423Z,10.80
2022-12-24T06:45:34.100Z,10.70
2022-12-24T06:48:31.528Z,10.70
2022-12-24T06:51:29.126Z,10.60
2022-12-24T06:54:26.773Z,10.60
2022-12-24T06:57:24.232Z,10.52
2022-12-24T07:00:22.212Z,10.54
2022-12-24T07:03:19.690Z,10.50
2022-12-24T07:06:17.667Z,10.50
2022-12-24T07:09:15.396Z,10.42
2022-12-24T07:12:13.152Z,10.40
2022-12-24T07:15:10.605Z,10.38
2022-12-24T07:18:08.309Z,10.30
2022-12-24T07:21:06.476Z,10.30
2022-12-24T07:24:03.884Z,10.30
2022-12-24T07:27:01.590Z,10.30
2022-12-24T07:29:59.041Z,10.30
2022-12-24T07:32:56.646Z,10.34
2022-12-24T07:35:55.969Z,10.40
2022-12-24T07:38:53.890Z,10.40
2022-12-24T07:41:51.654Z,10.38
2022-12-24T07:44:49.093Z,10.30
2022-12-24T07:47:46.887Z,10.30
2022-12-24T07:50:44.327Z,10.30
2022-12-24T07:53:47.928Z,10.30
2022-12-24T07:56:45.460Z,10.30
2022-12-24T07:59:43.163Z,10.30
2022-12-24T08:02:40.723Z,10.30
2022-12-24T08:05:38.608Z,10.30
2022-12-24T08:08:36.254Z,10.30
2022-12-24T08:11:33.680Z,10.32
2022-12-24T08:14:31.491Z,10.30
2022-12-24T08:17:32.433Z,10.34
2022-12-24T08:20:30.386Z,10.36
2022-12-24T08:23:27.819Z,10.40
2022-12-24T08:26:25.274Z,10.40
2022-12-24T08:29:22.938Z,10.40
2022-12-24T08:32:20.668Z,10.40
2022-12-24T08:35:18.284Z,10.40
2022-12-24T08:38:15.797Z,10.40
2022-12-24T08:41:13.402Z,10.40
2022-12-24T08:44:10.805Z,10.40
2022-12-24T08:47:08.563Z,10.40
2022-12-24T08:50:06.025Z,10.40
2022-12-24T08:53:03.797Z,10.50
2022-12-24T08:56:01.217Z,10.50
2022-12-24T08:58:58.800Z,10.60
2022-12-24T09:01:56.553Z,10.60
2022-12-24T09:04:55.048Z,10.66
2022-12-24T09:07:52.719Z,10.70
2022-12-24T09:10:50.179Z,10.70
2022-12-24T09:13:47.858Z,10.78
2022-12-24T09:16:45.383Z,10.80
2022-12-24T09:19:43.208Z,10.90
2022-12-24T09:22:40.672Z,10.90
2022-12-24T09:25:38.376Z,10.90
2022-12-24T09:28:36.704Z,11.00
2022-12-24T09:31:34.208Z,11.10
2022-12-24T09:34:31.931Z,11.12
2022-12-24T09:37:29.397Z,11.20
2022-12-24T09:40:27.265Z,11.26
2022-12-24T09:43:24.727Z,11.30
2022-12-24T09:46:22.633Z,11.34
2022-12-24T09:49:20.159Z,11.40
2022-12-24T09:52:17.792Z,11.40
2022-12-24T09:55:15.428Z,11.40
2022-12-24T09:58:12.866Z,11.50
2022-12-24T10:01:10.733Z,11.50
2022-12-24T10:04:08.595Z,11.50
2022-12-24T10:07:06.339Z,11.60
2022-12-24T10:10:03.926Z,11.60
2022-12-24T10:13:01.675Z,11.70
2022-12-24T10:15:59.128Z,11.80
2022-12-24T10:18:56.923Z,11.80
2022-12-24T10:21:54.670Z,11.84
2022-12-24T10:24:52.154Z,11.80
2022-12-24T10:27:49.884Z,11.80
2022-12-24T10:30:47.342Z,11.80
2022-12-24T10:33:45.155Z,11.90
2022-12-24T10:36:42.697Z,11.90
2022-12-24T10:39:40.412Z,11.94
2022-12-24T10:42:37.839Z,12.00
2022-12-24T10:45:35.602Z,12.10
2022-12-24T10:48:33.360Z,12.10
2022-12-24T10:51:30.811Z,12.20
2022-12-24T10:54:28.573Z,12.20
2022-12-24T10:57:26.089Z,12.20
2022-12-24T11:00:27.107Z,12.20
2022-12-24T11:03:29.671Z,12.20
2022-12-24T11:06:27.153Z,12.20
2022-12-24T11:09:24.888Z,12.28
2022-12-24T11:12:22.296Z,12.22
2022-12-24T11:15:20.002Z,12.30
2022-12-24T11:18:17.473Z,12.30
2022-12-24T11:21:15.064Z,12.32
2022-12-24T11:24:12.687Z,12.40
2022-12-24T11:27:10.126Z,12.40
2022-12-24T11:30:11.766Z,12.40
2022-12-24T11:33:09.605Z,12.44
2022-12-24T11:36:07.220Z,12.48
2022-12-24T11:39:04.641Z,12.42
2022-12-24T11:42:02.253Z,12.40
2022-12-24T11:44:59.827Z,12.36
2022-12-24T11:47:57.258Z,12.30
2022-12-24T11:50:54.944Z,12.30
2022-12-24T11:53:52.393Z,12.20
2022-12-24T11:56:50.251Z,12.24
2022-12-24T11:59:47.912Z,12.30
2022-12-24T12:02:45.388Z,12.30
2022-12-24T12:05:43.181Z,12.30
2022-12-24T12:08:40.627Z,12.30
2022-12-24T12:11:38.382Z,12.20
2022-12-24T12:14:35.836Z,12.12
2022-12-24T12:17:33.536Z,12.10
2022-12-24T12:20:31.298Z,12.10
2022-12-24T12:23:28.718Z,12.10
2022-12-24T12:26:26.506Z,12.00
2022-12-24T12:29:23.941Z,11.98
2022-12-24T12:32:21.640Z,11.90
2022-12-24T12:35:19.105Z,11.90
2022-12-24T12:38:16.972Z,11.96
2022-12-24T12:41:14.660Z,12.00
2022-12-24T12:44:12.113Z,12.06
2022-12-24T12:47:09.943Z,12.10
2022-12-24T12:50:08.270Z,12.10
2022-12-24T12:53:06.004Z,12.10
2022-12-24T12:56:03.445Z,12.10
2022-12-24T12:59:01.244Z,12.00
2022-12-24T13:01:59.051Z,12.00
2022-12-24T13:04:56.651Z,11.90
2022-12-24T13:07:54.251Z,11.90
2022-12-24T13:10:51.684Z,11.90
2022-12-24T13:13:49.369Z,11.84
2022-12-24T13:16:46.885Z,11.90
2022-12-24T13:19:44.769Z,12.00
2022-12-24T13:22:42.398Z,12.00
2022-12-24T13:25:39.837Z,12.08
2022-12-24T13:28:37.653Z,12.10
2022-12-24T13:31:35.131Z,12.10
2022-12-24T13:34:32.900Z,12.10
2022-12-24T13:37:30.369Z,12.00
2022-12-24T13:40:28.116Z,11.98
2022-12-24T13:43:25.800Z,11.90
2022-12-24T13:46:23.439Z,11.80
2022-12-24T13:49:21.351Z,11.70
2022-12-24T13:52:19.767Z,11.60
2022-12-24T13:55:17.486Z,11.60
2022-12-24T13:58:15.101Z,11.60
2022-12-24T14:01:12.722Z,11.58
2022-12-24T14:04:10.635Z,11.50
2022-12-24T14:07:09.284Z,11.50
2022-12-24T14:10:07.649Z,11.40
2022-12-24T14:13:09.092Z,11.40
2022-12-24T14:16:06.914Z,11.30
2022-12-24T14:19:04.644Z,11.30
2022-12-24T14:22:02.088Z,11.20
2022-12-24T14:24:59.806Z,11.10
2022-12-24T14:27:57.252Z,11.06
2022-12-24T14:30:54.994Z,11.00
2022-12-24T14:33:52.420Z,11.00
2022-12-24T14:36:50.332Z,11.00
2022-12-24T14:39:48.157Z,11.00
2022-12-24T14:42:45.606Z,11.00
2022-12-24T14:45:43.453Z,10.98
2022-12-24T14:48:40.906Z,10.90
2022-12-24T14:51:38.660Z,10.84
2022-12-24T14:54:36.708Z,10.80
2022-12-24T14:57:34.137Z,10.70
2022-12-24T15:00:37.600Z,10.70
2022-12-24T15:03:36.958Z,10.60
2022-12-24T15:06:34.686Z,10.60
2022-12-24T15:09:34.123Z,10.60
2022-12-24T15:12:31.753Z,10.60
2022-12-24T15:15:29.168Z,10.60
2022-12-24T15:18:26.845Z,10.60
2022-12-24T15:21:24.529Z,10.60
2022-12-24T15:24:21.955Z,10.60
2022-12-24T15:27:19.708Z,10.50
2022-12-24T15:30:17.158Z,10.50
2022-12-24T15:33:14.869Z,10.40
2022-12-24T15:36:12.279Z,10.40
2022-12-24T15:39:09.994Z,10.34
2022-12-24T15:42:18.229Z,10.32
2022-12-24T15:45:18.053Z,10.38
2022-12-24T15:48:21.412Z,10.40
2022-12-24T15:51:18.872Z,10.40
2022-12-24T15:54:16.547Z,10.50
2022-12-24T15:57:13.988Z,10.50
2022-12-24T16:00:12.392Z,10.50
2022-12-24T16:03:10.424Z,10.40
2022-12-24T16:06:08.365Z,10.40
2022-12-24T16:09:06.099Z,10.38
2022-12-24T16:12:03.875Z,10.30
2022-12-24T16:15:01.739Z,10.30
2022-12-24T16:17:59.170Z,10.30
2022-12-24T16:20:56.850Z,10.26
2022-12-24T16:23:54.619Z,10.28
2022-12-24T16:26:52.037Z,10.30
2022-12-24T16:29:49.742Z,10.30
2022-12-24T16:32:47.160Z,10.40
2022-12-24T16:35:44.857Z,10.40
2022-12-24T16:38:56.148Z,10.40
2022-12-24T16:42:11.520Z,10.40
2022-12-24T16:45:09.599Z,10.40
2022-12-24T16:48:07.023Z,10.40
2022-12-24T16:51:04.729Z,10.40
2022-12-24T16:54:02.144Z,10.40
2022-12-24T16:56:59.859Z,10.34
2022-12-24T16:59:57.284Z,10.40
2022-12-24T17:02:55.113Z,10.40
2022-12-24T17:05:52.652Z,10.42
2022-12-24T17:08:50.249Z,10.50
2022-12-24T17:11:47.658Z,10.50
2022-12-24T17:14:45.443Z,10.50
2022-12-24T17:17:43.204Z,10.50
2022-12-24T17:20:40.631Z,10.50
2022-12-24T17:23:38.336Z,10.50
2022-12-24T17:26:35.772Z,10.50
2022-12-24T17:29:33.854Z,10.50
2022-12-24T17:32:32.474Z,10.50
2022-12-24T17:35:30.729Z,10.50
2022-12-24T17:38:28.158Z,10.50
2022-12-24T17:41:25.785Z,10.60
2022-12-24T17:44:23.425Z,10.68
2022-12-24T17:47:20.834Z,10.70
2022-12-24T17:50:18.638Z,10.70
2022-12-24T17:53:16.069Z,10.70
2022-12-24T17:56:15.882Z,10.74
2022-12-24T17:59:14.144Z,10.74
2022-12-24T18:02:11.949Z,10.80
2022-12-24T18:05:09.842Z,10.80
2022-12-24T18:08:07.280Z,10.80
2022-12-24T18:11:04.954Z,10.80
2022-12-24T18:14:02.408Z,10.70
2022-12-24T18:17:00.194Z,10.70
2022-12-24T18:19:57.676Z,10.72
2022-12-24T18:22:55.269Z,10.80
2022-12-24T18:25:52.697Z,10.80
2022-12-24T18:28:50.379Z,10.90
2022-12-24T18:31:48.138Z,11.00
2022-12-24T18:34:45.659Z,11.00
2022-12-24T18:37:43.430Z,11.00
2022-12-24T18:40:40.888Z,11.00
2022-12-24T18:43:38.753Z,11.00
2022-12-24T18:46:36.282Z,10.98
2022-12-24T18:49:34.018Z,10.90
2022-12-24T18:52:32.587Z,10.90
2022-12-24T18:55:30.349Z,10.90
2022-12-24T18:58:27.771Z,10.82
2022-12-24T19:01:25.760Z,10.80
2022-12-24T19:04:23.634Z,10.80
2022-12-24T19:07:21.072Z,10.80
2022-12-24T19:10:18.856Z,10.80
2022-12-24T19:13:16.281Z,10.90
2022-12-24T19:16:14.372Z,10.90
2022-12-24T19:19:12.513Z,11.00
2022-12-24T19:22:09.966Z,11.00
2022-12-24T19:25:07.722Z,11.00
2022-12-24T19:28:08.818Z,11.00
2022-12-24T19:31:06.648Z,11.00
2022-12-24T19:34:04.154Z,10.90
2022-12-24T19:37:01.843Z,10.90
2022-12-24T19:39:59.275Z,10.90
2022-12-24T19:42:57.012Z,10.84
2022-12-24T19:45:54.531Z,10.80
2022-12-24T19:48:52.397Z,10.80
2022-12-24T19:51:50.030Z,10.80
2022-12-24T19:54:47.456Z,10.80
2022-12-24T19:57:45.124Z,10.76
2022-12-24T20:00:43.107Z,10.74
2022-12-24T20:03:40.929Z,10.80
2022-12-24T20:06:39.552Z,10.80
2022-12-24T20:09:37.401Z,10.90
2022-12-24T20:12:34.814Z,10.96
2022-12-24T20:15:32.633Z,11.00
2022-12-24T20:18:30.043Z,11.00
2022-12-24T20:21:27.732Z,11.00
2022-12-24T20:24:25.443Z,11.00
2022-12-24T20:27:25.667Z,11.00
2022-12-24T20:30:23.403Z,11.00
2022-12-24T20:33:20.846Z,10.90
2022-12-24T20:36:18.613Z,10.90
2022-12-24T20:39:17.322Z,10.86
2022-12-24T20:42:14.755Z,10.80
2022-12-24T20:45:12.463Z,10.80
2022-12-24T20:48:09.900Z,10.70
2022-12-24T20:51:07.774Z,10.70
2022-12-24T20:54:05.235Z,10.70
2022-12-24T20:57:03.018Z,10.70
2022-12-24T21:00:00.768Z,10.70
2022-12-24T21:02:58.274Z,10.70
2022-12-24T21:05:55.940Z,10.80
2022-12-24T21:08:53.364Z,10.80
2022-12-24T21:12:09.199Z,10.80
2022-12-24T21:15:06.609Z,10.80
2022-12-24T21:18:10.504Z,10.70
2022-12-24T21:21:07.925Z,10.70
2022-12-24T21:24:06.447Z,10.66
2022-12-24T21:27:04.112Z,10.60
2022-12-24T21:30:01.543Z,10.60
2022-12-24T21:32:59.229Z,10.60
2022-12-24T21:35:56.650Z,10.60
2022-12-24T21:38:54.255Z,10.60
2022-12-24T21:41:51.668Z,10.60
2022-12-24T21:44:49.395Z,10.60
2022-12-24T21:47:46.813Z,10.60
2022-12-24T21:50:56.490Z,10.60
2022-12-24T21:54:12.122Z,10.58
2022-12-24T21:57:27.230Z,10.60
2022-12-24T22:00:27.173Z,10.64
2022-12-24T22:03:24.668Z,10.70
2022-12-24T22:06:40.061Z,10.80
2022-12-24T22:09:55.692Z,10.80
2022-12-24T22:12:53.612Z,10.80
2022-12-24T22:15:51.353Z,10.80
2022-12-24T22:18:48.767Z,10.80
2022-12-24T22:21:46.558Z,10.80
2022-12-24T22:24:43.981Z,10.80
2022-12-24T22:27:41.580Z,10.80
2022-12-24T22:30:39.350Z,10.72
2022-12-24T22:33:37.154Z,10.70
2022-12-24T22:36:34.874Z,10.64
2022-12-24T22:39:32.325Z,10.60
2022-12-24T22:42:30.118Z,10.60
2022-12-24T22:45:27.568Z,10.60
2022-12-24T22:48:25.268Z,10.60
2022-12-24T22:51:22.756Z,10.60
2022-12-24T22:54:20.458Z,10.60
2022-12-24T22:57:17.898Z,10.60
2022-12-24T23:00:17.848Z,10.70
2022-12-24T23:03:15.635Z,10.70
2022-12-24T23:06:13.167Z,10.70
2022-12-24T23:09:10.943Z,10.60
2022-12-24T23:12:08.358Z,10.58
2022-12-24T23:15:06.291Z,10.50
2022-12-24T23:18:04.011Z,10.48
2022-12-24T23:21:01.428Z,10.40
2022-12-24T23:23:59.166Z,10.30
2022-12-24T23:26:56.584Z,10.30
2022-12-24T23:29:54.281Z,10.30
2022-12-24T23:32:51.692Z,10.26
2022-12-24T23:35:49.316Z,10.30
2022-12-24T23:38:46.727Z,10.30
2022-12-24T23:41:44.349Z,10.30
2022-12-24T23:44:42.099Z,10.30
2022-12-24T23:47:39.535Z,10.30
2022-12-24T23:50:38.039Z,10.30
2022-12-24T23:53:35.472Z,10.20
2022-12-24T23:56:33.236Z,10.12
2022-12-24T23:59:30.679Z,10.10
